ENAL Airport Information

Runway Information
Runway 07 Length 7592 ft width 148 ft
Elevation 34 ft Threshold 490 ft Heading 65
Runway 25 Length 7592 ft Width 148 ft
Elevation 48 ft Threshold 755 ft Heading 245
Airport Frequencies
Type ATIS Name ATIS Frequency 128.65 MHZ
Type TWR Name TWR Frequency 119.85 MHZ
Airport Navaids
Type NDB Name Vigra Frequency 355 KHZ
Type TACAN Name Vigra Frequency 112400 KHZ
Type VOR-DME Name Vigra Frequency 115800 KHZ
Airport Weather Information & NOTAM
ADDS - METARS form results

(1538 UTC 14 June 2021)
Data provider http://aviationweather.gov/metar/data/
 
METAR text: ENAL 141520Z 24018KT 9999 VCSH FEW020TCU SCT053 14/10 Q1004
Conditions at: ENAL (ALESUND/VIGRA , NO) observed 1520 UTC 14 June 2021
Temperature: 14.0°C (57°F)
Dewpoint: 10.0°C (50°F) [RH = 77%]
Pressure (altimeter): 29.65 inches Hg (1004.0 mb)
Winds: from the WSW (240 degrees) at 21 MPH (18 knots; 9.3 m/s)
Visibility: 6 or more miles (10+ km)
Ceiling: at least 12,000 feet AGL
Clouds: few clouds at 2000 feet AGL
scattered clouds at 5300 feet AGL
Weather: VCSH  (showers in vicinity)

METAR text: ENAL 141450Z 24020KT 9999 VCSH FEW020TCU SCT053 13/08 Q1004
Conditions at: ENAL (ALESUND/VIGRA , NO) observed 1450 UTC 14 June 2021
Temperature: 13.0°C (55°F)
Dewpoint: 8.0°C (46°F) [RH = 72%]
Pressure (altimeter): 29.65 inches Hg (1004.0 mb)
Winds: from the WSW (240 degrees) at 23 MPH (20 knots; 10.3 m/s)
Visibility: 6 or more miles (10+ km)
Ceiling: at least 12,000 feet AGL
Clouds: few clouds at 2000 feet AGL
scattered clouds at 5300 feet AGL
Weather: VCSH  (showers in vicinity)

Forecast for: ENAL (ALESUND/VIGRA , NO)
Text: TAF ENAL 141400Z 1415/1421 23015KT 9999 -SHRA FEW015TCU BKN035
Forecast period: 1500 to 2100 UTC 14 June 2021
Forecast type: FROM: standard forecast or significant change
Winds: from the SW (230 degrees) at 17 MPH (15 knots; 7.7 m/s)
Visibility: 6 or more miles (10+ km)
Ceiling: 3500 feet AGL
Clouds: few clouds at 1500 feet AGL
broken clouds at 3500 feet AGL
Weather: -SHRA  (light rain showers)
Text: TEMPO 1415/1421 24018G28KT SHRA BKN012 FEW015CB
Forecast period: 1500 to 2100 UTC 14 June 2021
Forecast type: TEMPORARY: The following changes expected for less than half the time period
Winds: from the WSW (240 degrees) at 21 MPH (18 knots; 9.3 m/s)
gusting to 32 MPH (28 knots; 14.4 m/s)
Visibility: missing
Ceiling: 1200 feet AGL
Clouds: broken clouds at 1200 feet AGL
few clouds at 1500 feet AGL
Weather: SHRA  (rain showers)